createdAt,value
2023-05-14T00:00:47.469Z,63.61
2023-05-14T00:03:29.201Z,63.66
2023-05-14T00:05:56.955Z,63.68
2023-05-14T00:08:24.605Z,63.88
2023-05-14T00:10:52.308Z,63.98
2023-05-14T00:13:19.906Z,63.92
2023-05-14T00:15:47.567Z,64.39
2023-05-14T00:18:15.263Z,63.93
2023-05-14T00:20:42.988Z,63.77
2023-05-14T00:23:10.717Z,63.90
2023-05-14T00:25:38.849Z,64.19
2023-05-14T00:28:06.434Z,64.15
2023-05-14T00:30:35.052Z,64.13
2023-05-14T00:33:02.751Z,64.10
2023-05-14T00:35:30.494Z,64.46
2023-05-14T00:37:58.071Z,64.40
2023-05-14T00:40:26.700Z,64.44
2023-05-14T00:42:54.918Z,64.46
2023-05-14T00:45:22.845Z,64.83
2023-05-14T00:47:50.527Z,64.69
2023-05-14T00:50:18.521Z,64.90
2023-05-14T00:52:46.170Z,65.04
2023-05-14T00:55:16.402Z,65.26
2023-05-14T00:57:44.097Z,65.15
2023-05-14T01:00:12.143Z,65.07
2023-05-14T01:02:39.848Z,65.00
2023-05-14T01:05:07.867Z,64.86
2023-05-14T01:07:52.179Z,64.95
2023-05-14T01:10:52.867Z,64.63
2023-05-14T01:13:59.291Z,65.06
2023-05-14T01:16:27.314Z,65.14
2023-05-14T01:18:55.007Z,65.12
2023-05-14T01:21:40.933Z,65.33
2023-05-14T01:24:08.900Z,65.47
2023-05-14T01:26:36.921Z,65.42
2023-05-14T01:29:15.368Z,65.62
2023-05-14T01:31:43.564Z,65.75
2023-05-14T01:34:11.834Z,66.28
2023-05-14T01:36:39.634Z,66.26
2023-05-14T01:39:09.697Z,66.42
2023-05-14T01:41:37.481Z,66.59
2023-05-14T01:44:05.338Z,66.88
2023-05-14T01:46:33.637Z,66.89
2023-05-14T01:49:01.446Z,66.98
2023-05-14T01:51:29.054Z,66.98
2023-05-14T01:53:56.726Z,67.19
2023-05-14T01:56:25.634Z,67.33
2023-05-14T01:58:53.330Z,67.46
2023-05-14T02:01:21.387Z,67.55
2023-05-14T02:03:49.102Z,67.63
2023-05-14T02:06:16.779Z,67.93
2023-05-14T02:08:44.369Z,68.20
2023-05-14T02:11:12.051Z,68.28
2023-05-14T02:13:39.716Z,68.68
2023-05-14T02:16:07.585Z,68.85
2023-05-14T02:18:35.329Z,68.77
2023-05-14T02:21:03.063Z,68.76
2023-05-14T02:23:40.370Z,68.70
2023-05-14T02:26:10.378Z,68.83
2023-05-14T02:28:38.142Z,68.64
2023-05-14T02:31:05.819Z,68.45
2023-05-14T02:33:33.563Z,68.32
2023-05-14T02:36:01.258Z,68.31
2023-05-14T02:38:28.839Z,68.10
2023-05-14T02:40:56.473Z,67.99
2023-05-14T02:43:24.151Z,67.96
2023-05-14T02:45:51.749Z,67.74
2023-05-14T02:48:19.390Z,67.85
2023-05-14T02:50:49.418Z,67.68
2023-05-14T02:53:17.079Z,68.08
2023-05-14T02:55:44.716Z,68.26
2023-05-14T02:58:12.304Z,68.25
2023-05-14T03:00:39.928Z,68.13
2023-05-14T03:03:08.126Z,68.37
2023-05-14T03:05:36.251Z,68.43
2023-05-14T03:08:03.872Z,68.55
2023-05-14T03:10:32.931Z,68.49
2023-05-14T03:13:00.576Z,68.34
2023-05-14T03:15:28.238Z,68.26
2023-05-14T03:17:55.831Z,68.33
2023-05-14T03:20:24.543Z,68.74
2023-05-14T03:22:52.318Z,68.95
2023-05-14T03:25:20.058Z,68.99
2023-05-14T03:27:47.684Z,69.20
2023-05-14T03:30:15.364Z,69.15
2023-05-14T03:32:43.104Z,69.05
2023-05-14T03:35:10.866Z,68.78
2023-05-14T03:37:38.523Z,68.72
2023-05-14T03:40:07.178Z,68.50
2023-05-14T03:42:34.771Z,68.59
2023-05-14T03:45:02.394Z,68.87
2023-05-14T03:47:30.002Z,69.11
2023-05-14T03:49:57.811Z,68.79
2023-05-14T03:52:25.425Z,68.81
2023-05-14T03:54:53.022Z,68.83
2023-05-14T03:57:21.132Z,68.86
2023-05-14T03:59:48.731Z,68.82
2023-05-14T04:02:16.314Z,68.76
2023-05-14T04:04:44.326Z,68.96
2023-05-14T04:07:12.074Z,69.17
2023-05-14T04:09:39.773Z,69.38
2023-05-14T04:12:07.922Z,69.42
2023-05-14T04:14:35.557Z,69.63
2023-05-14T04:17:03.766Z,69.81
2023-05-14T04:19:31.446Z,69.99
2023-05-14T04:21:59.396Z,69.95
2023-05-14T04:24:26.993Z,69.97
2023-05-14T04:26:54.593Z,70.30
2023-05-14T04:29:22.163Z,70.27
2023-05-14T04:31:49.924Z,70.15
2023-05-14T04:34:17.570Z,70.20
2023-05-14T04:36:45.794Z,70.21
2023-05-14T04:39:13.437Z,70.25
2023-05-14T04:41:41.036Z,70.08
2023-05-14T04:44:09.167Z,70.21
2023-05-14T04:46:36.829Z,70.58
2023-05-14T04:49:04.517Z,70.33
2023-05-14T04:51:32.696Z,70.26
2023-05-14T04:54:00.470Z,70.19
2023-05-14T04:56:28.107Z,69.87
2023-05-14T04:58:55.977Z,69.65
2023-05-14T05:01:23.803Z,69.70
2023-05-14T05:03:51.618Z,69.84
2023-05-14T05:06:19.378Z,70.05
2023-05-14T05:08:46.979Z,70.10
2023-05-14T05:11:14.619Z,69.96
2023-05-14T05:13:42.312Z,70.27
2023-05-14T05:16:09.935Z,70.22
2023-05-14T05:18:37.572Z,70.08
2023-05-14T05:21:05.662Z,69.66
2023-05-14T05:23:33.295Z,69.51
2023-05-14T05:26:00.905Z,69.27
2023-05-14T05:28:28.512Z,68.89
2023-05-14T05:30:56.200Z,68.73
2023-05-14T05:33:23.943Z,68.54
2023-05-14T05:35:52.493Z,68.12
2023-05-14T05:38:20.293Z,68.22
2023-05-14T05:40:48.306Z,67.69
2023-05-14T05:43:16.131Z,67.14
2023-05-14T05:45:44.138Z,67.33
2023-05-14T05:48:11.897Z,66.70
2023-05-14T05:50:39.550Z,66.05
2023-05-14T05:53:07.294Z,65.82
2023-05-14T05:55:35.166Z,65.50
2023-05-14T05:58:02.897Z,65.20
2023-05-14T06:00:31.333Z,64.81
2023-05-14T06:02:59.046Z,64.17
2023-05-14T06:05:27.003Z,64.26
2023-05-14T06:07:54.704Z,63.88
2023-05-14T06:10:22.755Z,62.48
2023-05-14T06:12:50.675Z,62.09
2023-05-14T06:15:21.123Z,61.81
2023-05-14T06:17:48.773Z,60.91
2023-05-14T06:20:16.435Z,60.41
2023-05-14T06:22:44.082Z,60.56
2023-05-14T06:25:11.780Z,60.45
2023-05-14T06:27:39.367Z,60.28
2023-05-14T06:30:07.694Z,60.20
2023-05-14T06:32:35.363Z,60.15
2023-05-14T06:35:03.130Z,60.18
2023-05-14T06:37:30.684Z,59.59
2023-05-14T06:39:58.290Z,59.11
2023-05-14T06:42:26.577Z,58.75
2023-05-14T06:44:54.846Z,58.25
2023-05-14T06:47:22.567Z,57.94
2023-05-14T06:49:50.339Z,58.36
2023-05-14T06:52:17.956Z,58.66
2023-05-14T06:54:45.606Z,57.64
2023-05-14T06:57:13.291Z,56.76
2023-05-14T06:59:41.425Z,56.74
2023-05-14T07:02:08.996Z,57.02
2023-05-14T07:04:36.790Z,56.60
2023-05-14T07:07:05.748Z,55.68
2023-05-14T07:09:33.345Z,55.74
2023-05-14T07:12:00.930Z,55.37
2023-05-14T07:14:28.506Z,54.74
2023-05-14T07:16:56.320Z,54.35
2023-05-14T07:19:23.906Z,54.27
2023-05-14T07:21:51.497Z,54.01
2023-05-14T07:24:19.101Z,54.32
2023-05-14T07:26:46.710Z,53.64
2023-05-14T07:29:14.285Z,53.21
2023-05-14T07:31:41.922Z,54.10
2023-05-14T07:34:11.002Z,54.51
2023-05-14T07:36:38.695Z,53.55
2023-05-14T07:39:06.789Z,53.38
2023-05-14T07:41:34.468Z,53.38
2023-05-14T07:44:02.163Z,53.34
2023-05-14T07:46:29.782Z,53.86
2023-05-14T07:48:57.352Z,52.83
2023-05-14T07:51:28.287Z,52.07
2023-05-14T07:53:55.932Z,51.25
2023-05-14T07:56:23.738Z,51.41
2023-05-14T07:58:51.464Z,51.83
2023-05-14T08:01:19.567Z,52.31
2023-05-14T08:03:47.822Z,51.92
2023-05-14T08:06:15.886Z,51.05
2023-05-14T08:08:43.517Z,50.63
2023-05-14T08:11:11.248Z,50.79
2023-05-14T08:13:38.908Z,49.76
2023-05-14T08:16:07.141Z,50.01
2023-05-14T08:18:34.739Z,49.33
2023-05-14T08:21:03.549Z,48.90
2023-05-14T08:23:31.406Z,48.91
2023-05-14T08:25:59.819Z,48.68
2023-05-14T08:28:27.476Z,48.66
2023-05-14T08:30:55.147Z,48.66
2023-05-14T08:33:22.983Z,48.98
2023-05-14T08:35:53.938Z,48.93
2023-05-14T08:38:21.598Z,48.98
2023-05-14T08:40:50.163Z,48.49
2023-05-14T08:43:19.114Z,48.59
2023-05-14T08:45:46.784Z,48.65
2023-05-14T08:48:14.428Z,48.57
2023-05-14T08:50:43.679Z,48.49
2023-05-14T08:53:11.313Z,48.31
2023-05-14T08:55:39.001Z,48.79
2023-05-14T08:58:06.611Z,48.70
2023-05-14T09:00:34.412Z,48.54
2023-05-14T09:03:02.300Z,48.10
2023-05-14T09:05:29.910Z,48.35
2023-05-14T09:07:57.507Z,47.69
2023-05-14T09:10:26.216Z,47.67
2023-05-14T09:12:54.479Z,47.52
2023-05-14T09:15:22.128Z,46.99
2023-05-14T09:17:49.737Z,46.95
2023-05-14T09:20:17.353Z,47.33
2023-05-14T09:22:44.989Z,47.03
2023-05-14T09:25:13.164Z,46.10
2023-05-14T09:27:40.812Z,46.37
2023-05-14T09:30:10.317Z,45.79
2023-05-14T09:32:50.362Z,45.37
2023-05-14T09:35:23.167Z,45.31
2023-05-14T09:37:52.570Z,44.54
2023-05-14T09:40:21.639Z,44.10
2023-05-14T09:42:49.646Z,44.16
2023-05-14T09:45:17.336Z,44.67
2023-05-14T09:47:45.452Z,43.29
2023-05-14T09:50:13.466Z,43.11
2023-05-14T09:52:41.330Z,42.96
2023-05-14T09:55:09.258Z,43.23
2023-05-14T09:57:37.285Z,42.82
2023-05-14T10:00:05.733Z,41.47
2023-05-14T10:02:41.512Z,40.26
2023-05-14T10:05:10.497Z,39.19
2023-05-14T10:07:44.567Z,37.77
2023-05-14T10:10:15.736Z,38.27
2023-05-14T10:12:44.751Z,38.37
2023-05-14T10:15:27.258Z,37.57
2023-05-14T10:17:56.483Z,36.83
2023-05-14T10:20:24.542Z,37.67
2023-05-14T10:22:52.668Z,36.57
2023-05-14T10:25:20.747Z,35.90
2023-05-14T10:27:48.837Z,35.63
2023-05-14T10:30:16.928Z,36.05
2023-05-14T10:32:44.666Z,35.84
2023-05-14T10:35:25.435Z,35.44
2023-05-14T10:37:53.053Z,35.13
2023-05-14T10:40:20.704Z,35.13
2023-05-14T10:42:48.370Z,34.76
2023-05-14T10:45:16.132Z,34.70
2023-05-14T10:47:45.914Z,33.88
2023-05-14T10:50:17.670Z,33.01
2023-05-14T10:52:45.611Z,33.28
2023-05-14T10:55:14.283Z,32.67
2023-05-14T10:57:45.357Z,32.62
2023-05-14T11:00:14.164Z,32.16
2023-05-14T11:02:43.248Z,31.35
2023-05-14T11:05:17.898Z,31.68
2023-05-14T11:07:47.500Z,31.02
2023-05-14T11:10:16.970Z,30.14
2023-05-14T11:12:46.052Z,30.78
2023-05-14T11:15:15.085Z,31.04
2023-05-14T11:17:43.631Z,30.38
2023-05-14T11:20:12.016Z,30.34
2023-05-14T11:22:40.397Z,30.61
2023-05-14T11:25:08.679Z,30.45
2023-05-14T11:27:39.451Z,29.88
2023-05-14T11:30:16.877Z,30.05
2023-05-14T11:32:48.543Z,30.53
2023-05-14T11:35:17.126Z,30.70
2023-05-14T11:37:50.641Z,30.57
2023-05-14T11:40:18.776Z,30.18
2023-05-14T11:42:46.699Z,30.66
2023-05-14T11:45:21.107Z,29.90
2023-05-14T11:47:48.835Z,30.07
2023-05-14T11:50:16.593Z,29.52
2023-05-14T11:52:44.217Z,30.12
2023-05-14T11:55:12.686Z,30.73
2023-05-14T11:57:41.148Z,31.37
2023-05-14T12:00:14.534Z,31.79
2023-05-14T12:02:42.283Z,31.74
2023-05-14T12:05:12.980Z,31.30
2023-05-14T12:07:41.983Z,31.15
2023-05-14T12:10:12.332Z,31.16
2023-05-14T12:12:40.026Z,30.89
2023-05-14T12:15:14.195Z,31.38
2023-05-14T12:17:41.901Z,31.79
2023-05-14T12:20:11.049Z,31.93
2023-05-14T12:22:38.905Z,31.86
2023-05-14T12:25:12.372Z,31.88
2023-05-14T12:27:40.013Z,31.50
2023-05-14T12:32:42.127Z,32.38
2023-05-14T12:35:09.874Z,32.71
2023-05-14T12:37:39.823Z,32.03
2023-05-14T12:40:09.684Z,32.07
2023-05-14T12:42:37.562Z,32.50
2023-05-14T12:45:08.053Z,32.32
2023-05-14T12:47:36.333Z,31.89
2023-05-14T12:50:04.732Z,31.91
2023-05-14T12:52:38.604Z,32.04
2023-05-14T12:55:08.972Z,32.09
2023-05-14T12:57:38.496Z,31.85
2023-05-14T13:00:08.130Z,32.05
2023-05-14T13:02:42.685Z,32.28
2023-05-14T13:05:12.038Z,32.84
2023-05-14T13:07:39.698Z,32.08
2023-05-14T13:10:08.213Z,31.84
2023-05-14T13:12:35.878Z,32.42
2023-05-14T13:15:03.735Z,33.00
2023-05-14T13:17:31.371Z,33.14
2023-05-14T13:19:59.054Z,33.10
2023-05-14T13:22:26.700Z,33.31
2023-05-14T13:24:54.357Z,33.26
2023-05-14T13:27:21.969Z,33.82
2023-05-14T13:29:49.804Z,34.03
2023-05-14T13:32:17.397Z,33.69
2023-05-14T13:34:45.101Z,33.29
2023-05-14T13:37:12.714Z,33.51
2023-05-14T13:39:41.164Z,33.20
2023-05-14T13:42:09.119Z,33.49
2023-05-14T13:44:36.880Z,33.33
2023-05-14T13:47:04.941Z,33.29
2023-05-14T13:49:32.596Z,33.78
2023-05-14T13:52:00.395Z,33.66
2023-05-14T13:54:27.981Z,34.46
2023-05-14T13:56:56.128Z,34.79
2023-05-14T13:59:23.993Z,34.92
2023-05-14T14:01:51.901Z,34.89
2023-05-14T14:04:20.056Z,34.52
2023-05-14T14:06:47.658Z,34.58
2023-05-14T14:09:15.473Z,35.07
2023-05-14T14:11:43.314Z,35.54
2023-05-14T14:14:12.059Z,35.77
2023-05-14T14:16:39.742Z,36.04
2023-05-14T14:19:07.662Z,36.15
2023-05-14T14:21:35.777Z,36.28
2023-05-14T14:24:03.875Z,36.58
2023-05-14T14:26:31.635Z,36.52
2023-05-14T14:28:59.245Z,37.04
2023-05-14T14:31:26.883Z,36.97
2023-05-14T14:33:54.495Z,36.78
2023-05-14T14:36:22.110Z,37.14
2023-05-14T14:38:49.694Z,37.74
2023-05-14T14:41:17.292Z,37.58
2023-05-14T14:43:44.896Z,37.01
2023-05-14T14:46:12.624Z,37.17
2023-05-14T14:48:41.418Z,37.28
2023-05-14T14:51:09.228Z,37.31
2023-05-14T14:53:37.202Z,37.73
2023-05-14T14:56:05.517Z,37.53
2023-05-14T14:58:33.163Z,37.36
2023-05-14T15:01:01.408Z,37.87
2023-05-14T15:03:29.308Z,37.98
2023-05-14T15:05:57.425Z,38.42
2023-05-14T15:08:26.749Z,38.66
2023-05-14T15:10:57.456Z,38.88
2023-05-14T15:13:25.833Z,38.70
2023-05-14T15:15:53.499Z,38.76
2023-05-14T15:18:21.302Z,38.81
2023-05-14T15:20:48.904Z,39.19
2023-05-14T15:23:16.507Z,39.50
2023-05-14T15:25:44.211Z,39.32
2023-05-14T15:28:11.821Z,39.07
2023-05-14T15:30:39.498Z,39.06
2023-05-14T15:33:07.776Z,39.10
2023-05-14T15:35:36.538Z,38.98
2023-05-14T15:38:04.145Z,38.83
2023-05-14T15:40:33.113Z,38.98
2023-05-14T15:43:00.792Z,39.40
2023-05-14T15:45:28.515Z,39.00
2023-05-14T15:47:56.195Z,39.33
2023-05-14T15:50:24.372Z,39.47
2023-05-14T15:52:52.040Z,39.55
2023-05-14T15:55:19.651Z,39.54
2023-05-14T15:57:47.270Z,39.50
2023-05-14T16:00:15.421Z,39.31
2023-05-14T16:02:43.156Z,39.67
2023-05-14T16:05:10.985Z,39.29
2023-05-14T16:07:38.824Z,39.52
2023-05-14T16:10:07.096Z,39.66
2023-05-14T16:12:34.754Z,39.73
2023-05-14T16:15:02.363Z,39.91
2023-05-14T16:17:32.712Z,40.03
2023-05-14T16:20:01.133Z,40.03
2023-05-14T16:22:29.490Z,40.01
2023-05-14T16:24:57.078Z,40.26
2023-05-14T16:27:25.031Z,40.33
2023-05-14T16:29:52.697Z,40.03
2023-05-14T16:32:21.673Z,40.19
2023-05-14T16:34:52.140Z,40.34
2023-05-14T16:37:22.837Z,40.46
2023-05-14T16:39:50.814Z,40.77
2023-05-14T16:42:18.384Z,40.55
2023-05-14T16:44:45.979Z,40.74
2023-05-14T16:47:13.569Z,40.73
2023-05-14T16:49:41.157Z,40.95
2023-05-14T16:52:08.761Z,41.06
2023-05-14T16:54:36.597Z,41.24
2023-05-14T16:57:04.604Z,41.18
2023-05-14T16:59:32.218Z,41.11
2023-05-14T17:01:59.904Z,41.27
2023-05-14T17:04:27.744Z,41.76
2023-05-14T17:06:57.341Z,41.57
2023-05-14T17:09:25.035Z,41.82
2023-05-14T17:11:52.901Z,41.74
2023-05-14T17:14:20.732Z,41.94
2023-05-14T17:16:48.574Z,42.07
2023-05-14T17:19:16.194Z,42.24
2023-05-14T17:21:43.845Z,42.36
2023-05-14T17:24:11.437Z,42.39
2023-05-14T17:26:39.039Z,42.55
2023-05-14T17:29:06.620Z,42.51
2023-05-14T17:31:34.294Z,42.50
2023-05-14T17:34:02.065Z,42.65
2023-05-14T17:36:29.755Z,42.97
2023-05-14T17:38:57.299Z,43.06
2023-05-14T17:41:24.936Z,43.42
2023-05-14T17:43:52.566Z,43.75
2023-05-14T17:46:20.254Z,43.76
2023-05-14T17:48:47.934Z,44.13
2023-05-14T17:51:15.604Z,44.23
2023-05-14T17:53:43.301Z,44.22
2023-05-14T17:56:10.905Z,44.38
2023-05-14T17:58:38.478Z,44.63
2023-05-14T18:01:06.205Z,44.84
2023-05-14T18:03:34.402Z,44.91
2023-05-14T18:06:02.166Z,45.02
2023-05-14T18:08:29.818Z,45.23
2023-05-14T18:10:58.503Z,45.23
2023-05-14T18:13:26.695Z,45.09
2023-05-14T18:15:56.546Z,45.39
2023-05-14T18:18:24.604Z,45.61
2023-05-14T18:20:52.550Z,45.91
2023-05-14T18:23:20.245Z,46.40
2023-05-14T18:25:48.274Z,46.68
2023-05-14T18:28:15.944Z,47.34
2023-05-14T18:30:45.308Z,48.04
2023-05-14T18:33:13.083Z,49.07
2023-05-14T18:35:42.152Z,50.78
2023-05-14T18:38:11.827Z,52.26
2023-05-14T18:40:39.545Z,52.76
2023-05-14T18:43:07.173Z,53.50
2023-05-14T18:45:34.849Z,54.07
2023-05-14T18:48:02.589Z,54.69
2023-05-14T18:50:30.721Z,54.93
2023-05-14T18:52:58.328Z,55.67
2023-05-14T18:55:26.530Z,56.13
2023-05-14T18:57:54.419Z,56.95
2023-05-14T19:00:22.191Z,57.47
2023-05-14T19:02:49.922Z,58.04
2023-05-14T19:05:17.763Z,58.55
2023-05-14T19:07:48.078Z,59.62
2023-05-14T19:10:15.885Z,59.93
2023-05-14T19:12:43.563Z,60.29
2023-05-14T19:15:11.690Z,60.48
2023-05-14T19:17:39.365Z,60.57
2023-05-14T19:20:08.094Z,60.98
2023-05-14T19:22:35.698Z,61.48
2023-05-14T19:25:04.393Z,61.79
2023-05-14T19:27:32.949Z,62.38
2023-05-14T19:30:00.856Z,62.80
2023-05-14T19:32:28.557Z,63.04
2023-05-14T19:34:56.320Z,63.13
2023-05-14T19:37:23.922Z,63.85
2023-05-14T19:39:51.553Z,64.45
2023-05-14T19:42:19.182Z,64.79
2023-05-14T19:44:46.743Z,65.08
2023-05-14T19:47:14.841Z,65.47
2023-05-14T19:49:42.583Z,65.68
2023-05-14T19:52:11.727Z,66.00
2023-05-14T19:54:39.386Z,66.25
2023-05-14T19:57:07.030Z,66.55
2023-05-14T19:59:34.826Z,66.92
2023-05-14T20:02:02.483Z,67.30
2023-05-14T20:04:30.208Z,67.35
2023-05-14T20:06:57.914Z,67.65
2023-05-14T20:09:25.938Z,67.69
2023-05-14T20:11:53.509Z,67.58
2023-05-14T20:14:21.105Z,67.61
2023-05-14T20:16:49.138Z,67.66
2023-05-14T20:19:16.879Z,68.09
2023-05-14T20:21:44.531Z,67.89
2023-05-14T20:24:12.241Z,67.93
2023-05-14T20:26:39.902Z,68.21
2023-05-14T20:29:09.088Z,68.33
2023-05-14T20:31:36.707Z,68.57
2023-05-14T20:34:04.317Z,68.80
2023-05-14T20:36:31.988Z,68.45
2023-05-14T20:39:00.610Z,68.83
2023-05-14T20:41:28.310Z,68.74
2023-05-14T20:43:55.869Z,68.72
2023-05-14T20:46:23.555Z,68.85
2023-05-14T20:48:53.577Z,68.78
2023-05-14T20:51:21.626Z,69.00
2023-05-14T20:53:49.212Z,68.91
2023-05-14T20:56:16.769Z,69.20
2023-05-14T20:58:44.658Z,69.55
2023-05-14T21:01:12.264Z,69.68
2023-05-14T21:03:40.129Z,69.65
2023-05-14T21:06:07.897Z,69.56
2023-05-14T21:08:37.665Z,69.65
2023-05-14T21:11:05.325Z,69.63
2023-05-14T21:13:32.962Z,70.10
2023-05-14T21:16:00.664Z,70.36
2023-05-14T21:18:30.852Z,70.44
2023-05-14T21:20:58.934Z,70.54
2023-05-14T21:23:26.645Z,70.55
2023-05-14T21:26:04.667Z,70.68
2023-05-14T21:28:32.263Z,70.65
2023-05-14T21:30:59.863Z,70.86
2023-05-14T21:33:27.636Z,70.95
2023-05-14T21:35:55.443Z,71.32
2023-05-14T21:38:23.065Z,71.37
2023-05-14T21:40:50.669Z,71.68
2023-05-14T21:43:18.433Z,71.85
2023-05-14T21:45:47.222Z,71.88
2023-05-14T21:48:14.859Z,71.85
2023-05-14T21:50:42.576Z,71.94
2023-05-14T21:53:10.188Z,71.94
2023-05-14T21:55:37.830Z,72.21
2023-05-14T21:58:06.830Z,72.18
2023-05-14T22:00:34.439Z,72.48
2023-05-14T22:03:02.091Z,72.68
2023-05-14T22:05:29.861Z,72.75
2023-05-14T22:07:57.475Z,72.83
2023-05-14T22:10:25.166Z,72.67
2023-05-14T22:12:52.772Z,72.92
2023-05-14T22:15:20.676Z,72.93
2023-05-14T22:17:48.379Z,73.11
2023-05-14T22:20:16.037Z,73.32
2023-05-14T22:22:43.655Z,73.28
2023-05-14T22:25:11.417Z,73.37
2023-05-14T22:27:39.027Z,73.34
2023-05-14T22:30:07.336Z,73.37
2023-05-14T22:32:35.016Z,73.28
2023-05-14T22:35:03.258Z,73.35
2023-05-14T22:37:30.868Z,73.43
2023-05-14T22:39:58.526Z,73.39
2023-05-14T22:42:27.253Z,73.34
2023-05-14T22:44:54.814Z,73.50
2023-05-14T22:47:22.467Z,73.60
2023-05-14T22:49:50.444Z,73.49
2023-05-14T22:52:18.927Z,73.62
2023-05-14T22:54:46.723Z,73.47
2023-05-14T22:57:14.462Z,73.58
2023-05-14T22:59:42.064Z,73.30
2023-05-14T23:02:09.788Z,73.43
2023-05-14T23:04:37.620Z,73.49
2023-05-14T23:07:05.228Z,73.59
2023-05-14T23:09:32.931Z,73.64
2023-05-14T23:12:00.547Z,73.74
2023-05-14T23:14:28.226Z,73.65
2023-05-14T23:16:55.843Z,73.64
2023-05-14T23:19:23.551Z,73.58
2023-05-14T23:21:51.258Z,73.58
2023-05-14T23:24:18.906Z,73.82
2023-05-14T23:26:46.496Z,73.64
2023-05-14T23:29:14.178Z,73.85
2023-05-14T23:31:43.628Z,73.97
2023-05-14T23:34:11.348Z,73.94
2023-05-14T23:36:39.781Z,73.88
2023-05-14T23:39:07.863Z,74.01
2023-05-14T23:41:35.499Z,73.98
2023-05-14T23:44:03.571Z,74.04
2023-05-14T23:46:31.212Z,74.06
2023-05-14T23:48:58.845Z,74.13
2023-05-14T23:51:29.263Z,74.07
2023-05-14T23:53:58.682Z,74.10
2023-05-14T23:56:27.467Z,74.01
2023-05-14T23:58:55.580Z,74.06
